createdAt,value
2023-02-02T00:04:49.238Z,1.53
2023-02-02T00:09:54.197Z,1.90
2023-02-02T00:14:58.257Z,1.60
2023-02-02T00:20:01.840Z,1.47
2023-02-02T00:25:07.873Z,1.87
2023-02-02T00:30:13.117Z,1.67
2023-02-02T00:35:17.061Z,1.60
2023-02-02T00:40:22.103Z,1.30
2023-02-02T00:45:26.670Z,2.20
2023-02-02T00:50:30.346Z,1.40
2023-02-02T00:55:35.340Z,1.10
2023-02-02T01:00:40.580Z,1.83
2023-02-02T01:05:45.224Z,1.17
2023-02-02T01:10:50.198Z,1.47
2023-02-02T01:15:56.669Z,1.20
2023-02-02T01:21:01.368Z,1.60
2023-02-02T01:26:08.528Z,1.40
2023-02-02T01:31:14.464Z,2.00
2023-02-02T01:36:20.424Z,1.73
2023-02-02T01:41:27.386Z,1.47
2023-02-02T01:46:32.375Z,1.37
2023-02-02T01:51:44.772Z,1.00
2023-02-02T01:56:52.866Z,1.10
2023-02-02T02:01:56.900Z,1.60
2023-02-02T02:07:02.823Z,2.23
2023-02-02T02:12:15.374Z,1.17
2023-02-02T02:17:47.415Z,1.37
2023-02-02T02:23:50.186Z,1.40
2023-02-02T02:29:42.114Z,1.67
2023-02-02T02:34:56.139Z,1.30
2023-02-02T02:40:08.964Z,1.27
2023-02-02T02:45:13.895Z,1.10
2023-02-02T02:50:19.048Z,1.50
2023-02-02T02:55:24.359Z,1.60
2023-02-02T03:00:49.627Z,1.13
2023-02-02T03:06:02.890Z,1.03
2023-02-02T03:11:08.501Z,1.20
2023-02-02T03:16:12.939Z,0.90
2023-02-02T03:21:17.890Z,1.03
2023-02-02T03:26:21.701Z,1.30
2023-02-02T03:31:26.957Z,1.50
2023-02-02T03:36:32.051Z,1.40
2023-02-02T03:41:35.594Z,1.70
2023-02-02T03:46:39.257Z,1.70
2023-02-02T03:51:44.462Z,1.73
2023-02-02T03:56:48.031Z,1.70
2023-02-02T04:01:51.658Z,1.10
2023-02-02T04:06:58.596Z,1.40
2023-02-02T04:12:02.254Z,1.50
2023-02-02T04:17:05.828Z,1.70
2023-02-02T04:22:10.742Z,1.50
2023-02-02T04:27:14.307Z,1.67
2023-02-02T04:32:18.963Z,1.40
2023-02-02T04:37:23.902Z,1.30
2023-02-02T04:42:27.444Z,1.20
2023-02-02T04:47:31.450Z,1.17
2023-02-02T04:52:36.740Z,1.60
2023-02-02T04:57:40.426Z,1.50
2023-02-02T05:02:44.550Z,1.17
2023-02-02T05:07:49.536Z,1.20
2023-02-02T05:12:53.845Z,1.90
2023-02-02T05:17:57.404Z,1.53
2023-02-02T05:23:02.407Z,1.80
2023-02-02T05:28:06.271Z,1.40
2023-02-02T05:33:10.347Z,1.27
2023-02-02T05:38:15.300Z,1.50
2023-02-02T05:43:21.324Z,1.60
2023-02-02T05:48:25.107Z,2.17
2023-02-02T05:53:31.091Z,2.63
2023-02-02T05:58:34.583Z,1.80
2023-02-02T06:03:38.263Z,1.67
2023-02-02T06:08:43.309Z,1.40
2023-02-02T06:13:47.008Z,1.73
2023-02-02T06:18:50.702Z,1.60
2023-02-02T06:23:55.639Z,1.50
2023-02-02T06:28:59.566Z,1.80
2023-02-02T06:34:03.200Z,1.10
2023-02-02T06:39:09.710Z,1.50
2023-02-02T06:44:14.766Z,1.50
2023-02-02T06:49:18.368Z,1.47
2023-02-02T06:54:23.321Z,1.83
2023-02-02T06:59:26.892Z,1.53
2023-02-02T07:04:30.794Z,1.50
2023-02-02T07:09:36.262Z,2.00
2023-02-02T07:14:39.842Z,2.10
2023-02-02T07:19:43.463Z,2.30
2023-02-02T07:24:48.427Z,2.53
2023-02-02T07:29:51.946Z,2.50
2023-02-02T07:34:55.472Z,1.67
2023-02-02T07:40:00.762Z,1.93
2023-02-02T07:45:27.639Z,2.27
2023-02-02T07:50:31.017Z,1.80
2023-02-02T07:55:36.029Z,1.97
2023-02-02T08:00:39.748Z,1.60
2023-02-02T08:05:43.318Z,1.47
2023-02-02T08:10:50.607Z,1.53
2023-02-02T08:15:54.233Z,2.13
2023-02-02T08:20:59.880Z,1.60
2023-02-02T08:26:14.021Z,1.60
2023-02-02T08:31:19.992Z,1.90
2023-02-02T08:36:24.667Z,1.90
2023-02-02T08:41:30.116Z,1.63
2023-02-02T08:46:33.764Z,1.20
2023-02-02T08:51:37.368Z,1.70
2023-02-02T08:56:42.327Z,1.43
2023-02-02T09:01:46.249Z,1.63
2023-02-02T09:06:49.831Z,1.47
2023-02-02T09:11:54.805Z,1.80
2023-02-02T09:16:58.569Z,1.57
2023-02-02T09:22:02.222Z,1.33
2023-02-02T09:27:07.433Z,1.93
2023-02-02T09:32:11.249Z,2.17
2023-02-02T09:37:14.927Z,1.63
2023-02-02T09:42:45.692Z,1.70
2023-02-02T09:47:58.412Z,2.00
2023-02-02T09:53:08.028Z,1.80
2023-02-02T09:58:19.821Z,1.87
2023-02-02T10:03:29.183Z,1.30
2023-02-02T10:08:37.566Z,1.67
2023-02-02T10:13:44.096Z,1.70
2023-02-02T10:18:52.772Z,1.63
2023-02-02T10:23:58.446Z,2.10
2023-02-02T10:29:13.689Z,1.67
2023-02-02T10:34:23.615Z,1.67
2023-02-02T10:39:38.443Z,1.50
2023-02-02T10:44:49.931Z,2.20
2023-02-02T10:50:03.242Z,1.73
2023-02-02T10:55:15.768Z,1.90
2023-02-02T11:00:26.238Z,1.63
2023-02-02T11:05:49.511Z,2.27
2023-02-02T11:10:56.214Z,2.10
2023-02-02T11:16:28.458Z,2.40
2023-02-02T11:21:37.401Z,1.70
2023-02-02T11:26:48.954Z,1.77
2023-02-02T11:31:54.330Z,1.53
2023-02-02T11:37:13.195Z,2.03
2023-02-02T11:42:19.496Z,1.67
2023-02-02T11:47:30.160Z,1.80
2023-02-02T11:52:34.857Z,1.67
2023-02-02T11:57:38.435Z,1.80
2023-02-02T12:02:49.141Z,1.70
2023-02-02T12:07:52.737Z,2.23
2023-02-02T12:13:05.062Z,1.40
2023-02-02T12:18:28.008Z,1.50
2023-02-02T12:23:56.428Z,1.77
2023-02-02T12:29:26.437Z,1.53
2023-02-02T12:34:42.671Z,1.60
2023-02-02T12:39:59.076Z,1.40
2023-02-02T12:45:26.689Z,1.60
2023-02-02T12:50:37.916Z,1.87
2023-02-02T12:55:45.857Z,1.67
2023-02-02T13:01:12.925Z,1.60
2023-02-02T13:06:42.323Z,1.80
2023-02-02T13:11:50.782Z,1.60
2023-02-02T13:16:58.768Z,1.60
2023-02-02T13:22:05.771Z,1.90
2023-02-02T13:27:16.040Z,2.03
2023-02-02T13:32:26.109Z,2.00
2023-02-02T13:37:37.285Z,1.50
2023-02-02T13:42:47.611Z,1.17
2023-02-02T13:47:59.926Z,1.17
2023-02-02T13:53:21.610Z,1.40
2023-02-02T13:59:01.916Z,1.53
2023-02-02T14:04:06.803Z,1.47
2023-02-02T14:09:20.060Z,1.40
2023-02-02T14:14:34.487Z,1.10
2023-02-02T14:19:52.491Z,1.00
2023-02-02T14:24:57.449Z,1.50
2023-02-02T14:30:01.624Z,1.17
2023-02-02T14:35:34.963Z,1.33
2023-02-02T14:40:52.827Z,0.90
2023-02-02T14:46:24.592Z,1.10
2023-02-02T14:51:32.532Z,1.10
2023-02-02T14:56:49.744Z,0.87
2023-02-02T15:02:03.619Z,0.90
2023-02-02T15:07:51.125Z,0.50
2023-02-02T15:13:06.107Z,0.80
2023-02-02T15:18:16.566Z,0.70
2023-02-02T15:23:30.082Z,0.53
2023-02-02T15:28:43.282Z,0.80
2023-02-02T15:33:49.514Z,0.60
2023-02-02T15:38:55.463Z,0.80
2023-02-02T15:44:00.657Z,0.40
2023-02-02T15:49:35.220Z,0.70
2023-02-02T15:54:39.703Z,0.70
2023-02-02T15:59:46.081Z,0.70
2023-02-02T16:04:49.696Z,0.53
2023-02-02T16:09:53.813Z,0.80
2023-02-02T16:14:58.913Z,0.87
2023-02-02T16:20:08.475Z,0.77
2023-02-02T16:25:17.525Z,0.73
2023-02-02T16:30:28.135Z,0.50
2023-02-02T16:35:34.441Z,0.70
2023-02-02T16:40:38.840Z,0.60
2023-02-02T16:45:48.375Z,0.60
2023-02-02T16:51:13.253Z,0.90
2023-02-02T16:56:27.767Z,0.50
2023-02-02T17:01:39.292Z,0.70
2023-02-02T17:06:52.254Z,0.70
2023-02-02T17:12:02.076Z,0.60
2023-02-02T17:17:07.622Z,0.50
2023-02-02T17:22:11.839Z,0.53
2023-02-02T17:27:18.683Z,0.60
2023-02-02T17:32:24.842Z,0.50
2023-02-02T17:37:28.420Z,0.60
2023-02-02T17:42:32.248Z,0.63
2023-02-02T17:47:37.619Z,0.40
2023-02-02T17:52:41.377Z,0.60
2023-02-02T17:57:47.153Z,0.60
2023-02-02T18:02:57.981Z,0.60
2023-02-02T18:08:01.840Z,0.70
2023-02-02T18:13:05.557Z,0.60
2023-02-02T18:18:12.320Z,0.73
2023-02-02T18:23:17.012Z,0.40
2023-02-02T18:28:21.024Z,1.10
2023-02-02T18:33:25.925Z,1.00
2023-02-02T18:38:29.464Z,0.80
2023-02-02T18:43:33.284Z,0.97
2023-02-02T18:48:38.565Z,0.90
2023-02-02T18:53:42.141Z,1.07
2023-02-02T18:58:45.781Z,1.23
2023-02-02T19:03:52.537Z,1.23
2023-02-02T19:08:56.253Z,1.10
2023-02-02T19:14:00.656Z,1.23
2023-02-02T19:19:13.119Z,1.40
2023-02-02T19:24:16.712Z,1.17
2023-02-02T19:29:22.389Z,1.10
2023-02-02T19:34:27.391Z,1.10
2023-02-02T19:39:32.068Z,0.97
2023-02-02T19:44:38.697Z,1.10
2023-02-02T19:49:43.689Z,0.93
2023-02-02T19:54:49.022Z,1.13
2023-02-02T19:59:53.578Z,1.30
2023-02-02T20:05:07.304Z,1.40
2023-02-02T20:10:18.671Z,1.20
2023-02-02T20:15:40.399Z,1.20
2023-02-02T20:20:49.578Z,0.80
2023-02-02T20:25:53.254Z,0.93
2023-02-02T20:30:56.810Z,1.50
2023-02-02T20:36:03.044Z,1.13
2023-02-02T20:41:07.098Z,1.13
2023-02-02T20:46:10.748Z,1.50
2023-02-02T20:51:15.957Z,1.27
2023-02-02T20:56:19.751Z,1.30
2023-02-02T21:01:25.280Z,1.47
2023-02-02T21:06:30.295Z,1.50
2023-02-02T21:11:34.007Z,1.80
2023-02-02T21:16:37.938Z,2.40
2023-02-02T21:21:42.975Z,1.60
2023-02-02T21:26:48.861Z,1.70
2023-02-02T21:31:58.722Z,1.87
2023-02-02T21:37:03.800Z,1.87
2023-02-02T21:42:13.971Z,1.60
2023-02-02T21:47:28.093Z,1.53
2023-02-02T21:52:34.841Z,1.67
2023-02-02T21:57:38.679Z,1.50
2023-02-02T22:02:45.272Z,1.60
2023-02-02T22:07:53.290Z,1.70
2023-02-02T22:12:57.154Z,1.50
2023-02-02T22:18:03.527Z,1.23
2023-02-02T22:23:12.058Z,1.60
2023-02-02T22:28:22.361Z,1.80
2023-02-02T22:33:26.826Z,1.53
2023-02-02T22:38:31.787Z,1.20
2023-02-02T22:43:35.420Z,1.40
2023-02-02T22:48:38.988Z,1.17
2023-02-02T22:53:43.952Z,1.37
2023-02-02T22:58:47.589Z,1.30
2023-02-02T23:03:51.214Z,1.07
2023-02-02T23:08:56.285Z,0.93
2023-02-02T23:14:00.224Z,1.40
2023-02-02T23:19:03.813Z,1.53
2023-02-02T23:24:09.611Z,1.13
2023-02-02T23:29:13.140Z,1.40
2023-02-02T23:34:16.738Z,1.53
2023-02-02T23:39:21.748Z,1.30
2023-02-02T23:44:25.369Z,1.57
2023-02-02T23:49:29.123Z,1.60
2023-02-02T23:54:34.700Z,1.77
2023-02-02T23:59:38.674Z,1.90
